DAUH/HME METAR and TAF weather

Enter ICAO airport designator
Station Type Date Time Source
DAUH METAR 2019/08/17 10:30 UTC NOAA

DAUH 171030Z 07014KT CAVOK 36/08 Q1016


Station Type Date Time Source
DAUH Decoded METAR 2019/08/17 10:30 UTC NOAA

Station name not available
Aug 17, 2019 - 06:30 AM EDT / 2019.08.17 1030 UTC
Wind: from the ENE (070 degrees) at 16 MPH (14 KT):0
Visibility: greater than 7 mile(s):0
Temperature: 96 F (36 C)
Dew Point: 46 F (8 C)
Relative Humidity: 18%
Pressure (altimeter): 30.00 in. Hg (1016 hPa)
ob: DAUH 171030Z 07014KT CAVOK 36/08 Q1016
cycle: 10

Station Type Date Time Source
DAUH TAF 2019/08/17 06:33 UTC NOAA

TAF DAUH 170500Z 1706/1806 08008KT CAVOK PROB30
TEMPO 1709/1712 08015G25KT 5000 DRSA

Example: see airport list